Bangor International Airport Bangor US
ICAO: KBGR
IATA: BGR
Category: Large
Scheduled Services: Yes

Elevation: 192 ft
TransAlt. 18000 ft.

Airport Communications:
APP/DEP:118.925
ASOS:127.75
ATIS:127.75
CLNC DEL:135.9
GND:121.9
ARNG OPS:41.2
ANG OPS:31.1
RDO:122.2
TWR:120.7
UNICOM:122.95

KBGR Zoom In..

If you have problems with the map follow the link
https://www.worldairports.se/pages/airport.php?
ICAO=KBGR

Runways:

(A) RW 15 length 11440 ft width 200 ft
ILS 109.50 / hdg 153

(B) RW 33 length 11440 ft width 200 ft
ILS 109.50 / hdg 333

Location; KBGR
Day. 23 / Time. 16.53 Zulu
* Altimeter: 30.17
* Temperature: 03° c. 37.4°f.
* Wind from: 030° Speed 09 kn.
Dewpoint: 01° c.
Visibility: 10 Statute Miles.
Clouds: Few 3400 ft.
Clouds: Overcast 5500 ft.

KBGR 231653Z 03009KT 10SM FEW034 OVC055 03/01 A3017 RMK AO2 RAB01E10 SLP219 BINOVC P0000 T00330006


Wind From 030°
Speed 09 kn.

 
 
jpsmedia.com for Web Design worldairports.se 2018   terms of use